Time;durP1;ratioP1;P1;durP2;ratioP2;P2;SDS_P1;SDS_P2;PMS_P1;PMS_P2;Temp;Humidity;BMP_temperature;BMP_pressure;BME280_temperature;BME280_humidity;BME280_pressure;Samples;Min_cycle;Max_cycle;Signal;HPM_P1;HPM_P2
2023/07/21 00:01:49;;;;;;;0.00;0.00;;;16.30;71.90;;;;;;5009882;28;20049;-73
2023/07/21 00:04:17;;;;;;;0.00;0.00;;;16.30;71.80;;;;;;4991997;28;20052;-73
2023/07/21 00:06:43;;;;;;;0.00;0.00;;;16.20;72.00;;;;;;4991889;28;20125;-73
2023/07/21 00:09:09;;;;;;;0.00;0.00;;;16.20;72.10;;;;;;5009269;28;20045;-73
2023/07/21 00:11:38;;;;;;;0.00;0.00;;;16.30;72.10;;;;;;4992494;28;20049;-73
2023/07/21 00:14:05;;;;;;;0.00;0.00;;;16.20;72.20;;;;;;4992241;28;20064;-73
2023/07/21 00:16:32;;;;;;;0.00;0.00;;;16.10;72.30;;;;;;5009578;28;20048;-73
2023/07/21 00:18:58;;;;;;;0.00;0.00;;;16.10;72.70;;;;;;5008978;28;20088;-73
2023/07/21 00:21:24;;;;;;;0.00;0.00;;;16.10;72.80;;;;;;5010160;28;20101;-73
2023/07/21 00:23:51;;;;;;;0.00;0.00;;;16.10;72.80;;;;;;4992787;28;20054;-73
2023/07/21 00:26:17;;;;;;;0.00;0.00;;;16.10;72.80;;;;;;4989628;28;20046;-73
2023/07/21 00:28:43;;;;;;;0.00;0.00;;;16.00;73.00;;;;;;4989798;28;20042;-73
2023/07/21 00:31:09;;;;;;;0.03;0.03;;;16.00;73.20;;;;;;4972513;28;20042;-73
2023/07/21 00:33:35;;;;;;;0.00;0.00;;;16.00;73.20;;;;;;4972547;28;20054;-73
2023/07/21 00:36:00;;;;;;;0.00;0.00;;;15.90;73.10;;;;;;4972726;28;20045;-73
2023/07/21 00:38:26;;;;;;;0.00;0.00;;;15.90;73.10;;;;;;4991851;28;20046;-73
2023/07/21 00:40:51;;;;;;;0.00;0.00;;;15.80;73.30;;;;;;4975577;28;20204;-73
2023/07/21 00:43:18;;;;;;;0.00;0.00;;;15.80;73.30;;;;;;5009098;28;20089;-73
2023/07/21 00:45:46;;;;;;;0.00;0.00;;;15.80;73.40;;;;;;5009518;28;20058;-73
2023/07/21 00:48:13;;;;;;;0.00;0.00;;;15.80;73.40;;;;;;5009497;28;20049;-73
2023/07/21 00:50:44;;;;;;;0.00;0.00;;;15.70;73.60;;;;;;4992093;28;20104;-73
2023/07/21 00:53:14;;;;;;;0.00;0.00;;;15.70;73.60;;;;;;4991769;28;20138;-73
2023/07/21 00:55:45;;;;;;;0.00;0.00;;;15.70;73.80;;;;;;5009384;28;20517;-73
2023/07/21 00:58:11;;;;;;;0.00;0.00;;;15.60;73.80;;;;;;5009019;28;20054;-73
2023/07/21 01:00:40;;;;;;;0.00;0.00;;;15.60;73.90;;;;;;4991698;28;20605;-73
2023/07/21 01:03:08;;;;;;;0.00;0.00;;;15.60;74.10;;;;;;4991611;28;20050;-73
2023/07/21 01:05:38;;;;;;;0.00;0.00;;;15.60;74.20;;;;;;5009008;28;20442;-73
2023/07/21 01:08:05;;;;;;;0.00;0.00;;;15.60;74.30;;;;;;5009314;28;20446;-73
2023/07/21 01:10:33;;;;;;;0.00;0.00;;;15.60;74.50;;;;;;4995882;28;20042;-73
2023/07/21 01:13:00;;;;;;;0.00;0.00;;;15.60;74.80;;;;;;5003832;28;20049;-73
2023/07/21 01:15:27;;;;;;;0.00;0.00;;;15.60;74.80;;;;;;4975002;28;20050;-73
2023/07/21 01:17:54;;;;;;;0.00;0.00;;;15.60;75.00;;;;;;4993415;28;20053;-73
2023/07/21 01:20:23;;;;;;;0.00;0.00;;;15.60;75.10;;;;;;4996185;28;20549;-73
2023/07/21 01:23:00;;;;;;;0.00;0.00;;;15.60;75.10;;;;;;5012478;28;20085;-73
2023/07/21 01:25:28;;;;;;;0.00;0.00;;;15.60;75.00;;;;;;4978440;28;20089;-73
2023/07/21 01:27:55;;;;;;;0.00;0.00;;;15.60;74.90;;;;;;5012732;28;20053;-73
2023/07/21 01:30:21;;;;;;;0.00;0.00;;;15.50;74.90;;;;;;5011984;28;20058;-73
2023/07/21 01:32:49;;;;;;;0.00;0.00;;;15.50;75.10;;;;;;5012416;28;20506;-73
2023/07/21 01:35:17;;;;;;;0.00;0.00;;;15.50;75.00;;;;;;4978406;28;20100;-73
2023/07/21 01:37:44;;;;;;;0.00;0.00;;;15.50;75.00;;;;;;4994664;28;20050;-73
2023/07/21 01:40:12;;;;;;;0.00;0.00;;;15.50;75.20;;;;;;4994963;28;20128;-73
2023/07/21 01:42:39;;;;;;;0.00;0.00;;;15.50;75.20;;;;;;5012246;28;20045;-73
2023/07/21 01:45:07;;;;;;;0.00;0.00;;;15.50;74.90;;;;;;5011897;28;20058;-73
2023/07/21 01:47:33;;;;;;;0.00;0.00;;;15.40;74.70;;;;;;4994072;28;20057;-73
2023/07/21 01:50:00;;;;;;;0.03;0.03;;;15.40;74.80;;;;;;5012136;28;20049;-73
2023/07/21 01:52:31;;;;;;;0.00;0.00;;;15.40;74.90;;;;;;5011869;28;20060;-73
2023/07/21 01:55:06;;;;;;;0.00;0.00;;;15.30;75.10;;;;;;4994398;28;20049;-73
2023/07/21 01:57:36;;;;;;;0.00;0.00;;;15.30;75.20;;;;;;5011442;28;20057;-73
2023/07/21 02:00:04;;;;;;;0.00;0.00;;;15.30;75.00;;;;;;4994646;28;20045;-73
2023/07/21 02:02:30;;;;;;;0.00;0.00;;;15.30;75.10;;;;;;4994414;28;20137;-74
2023/07/21 02:04:56;;;;;;;0.00;0.00;;;15.30;75.30;;;;;;5011033;28;20691;-73
2023/07/21 02:07:22;;;;;;;0.00;0.00;;;15.20;75.50;;;;;;5012375;28;20045;-73
2023/07/21 02:09:52;;;;;;;0.60;0.30;;;15.20;75.60;;;;;;4994300;28;20042;-73
2023/07/21 02:12:18;;;;;;;0.00;0.00;;;15.20;75.50;;;;;;5011315;28;20054;-73
2023/07/21 02:14:44;;;;;;;0.00;0.00;;;15.10;75.50;;;;;;5011995;28;20457;-73
2023/07/21 02:17:10;;;;;;;0.00;0.00;;;15.10;75.60;;;;;;5011001;28;20046;-73
2023/07/21 02:19:35;;;;;;;0.00;0.00;;;15.20;75.70;;;;;;5011890;28;20406;-73
2023/07/21 02:22:01;;;;;;;0.00;0.00;;;15.10;75.80;;;;;;4986729;28;20042;-73
2023/07/21 02:24:26;;;;;;;0.00;0.00;;;15.10;76.00;;;;;;4991911;28;20054;-73
2023/07/21 02:26:53;;;;;;;0.00;0.00;;;15.10;76.00;;;;;;4992310;28;20582;-73
2023/07/21 02:29:19;;;;;;;0.00;0.00;;;15.10;76.10;;;;;;5011405;28;20513;-73
2023/07/21 02:31:45;;;;;;;0.00;0.00;;;15.10;76.20;;;;;;5006982;28;20042;-73
2023/07/21 02:34:11;;;;;;;0.00;0.00;;;15.10;76.40;;;;;;4979578;28;20085;-73
2023/07/21 02:36:37;;;;;;;0.00;0.00;;;15.20;76.30;;;;;;5011146;28;20045;-73
2023/07/21 02:39:04;;;;;;;0.00;0.00;;;15.10;76.40;;;;;;4994652;28;20054;-74
2023/07/21 02:41:30;;;;;;;0.00;0.00;;;15.10;76.70;;;;;;5010743;28;20129;-74
2023/07/21 02:43:56;;;;;;;0.00;0.00;;;15.20;76.70;;;;;;4974083;28;20328;-73
2023/07/21 02:46:22;;;;;;;0.00;0.00;;;15.20;76.70;;;;;;4974603;28;20458;-73
2023/07/21 02:48:47;;;;;;;0.00;0.00;;;15.10;76.80;;;;;;4991697;28;20097;-73
2023/07/21 02:51:13;;;;;;;0.00;0.00;;;15.20;76.80;;;;;;4974375;28;20049;-73
2023/07/21 02:53:39;;;;;;;0.00;0.00;;;15.20;76.80;;;;;;4991906;28;20411;-73
2023/07/21 02:56:05;;;;;;;0.00;0.00;;;15.10;77.00;;;;;;5010884;28;20056;-73
2023/07/21 02:58:32;;;;;;;0.00;0.00;;;15.20;77.20;;;;;;4993378;28;20132;-73
2023/07/21 03:00:58;;;;;;;0.00;0.00;;;15.20;77.30;;;;;;5010946;28;20049;-73
2023/07/21 03:03:25;;;;;;;0.00;0.00;;;15.10;77.00;;;;;;5010918;28;20053;-73
2023/07/21 03:05:53;;;;;;;0.00;0.00;;;15.20;76.90;;;;;;5011277;28;20042;-73
2023/07/21 03:08:31;;;;;;;0.00;0.00;;;15.20;76.80;;;;;;5010990;28;20038;-73
2023/07/21 03:10:57;;;;;;;0.00;0.00;;;15.20;76.80;;;;;;5010655;28;20049;-73
2023/07/21 03:13:24;;;;;;;0.00;0.00;;;15.20;76.70;;;;;;5010940;28;20058;-73
2023/07/21 03:15:51;;;;;;;0.00;0.00;;;15.20;76.80;;;;;;5010844;28;20046;-73
2023/07/21 03:18:17;;;;;;;0.00;0.00;;;15.20;77.00;;;;;;4992564;28;20038;-73
2023/07/21 03:20:43;;;;;;;0.00;0.00;;;15.20;77.00;;;;;;5010576;28;20050;-73
2023/07/21 03:23:09;;;;;;;0.00;0.00;;;15.20;76.90;;;;;;5011580;28;20054;-73
2023/07/21 03:25:35;;;;;;;0.00;0.00;;;15.20;76.90;;;;;;5011135;28;20271;-73
2023/07/21 03:28:03;;;;;;;0.00;0.00;;;15.20;76.70;;;;;;5010587;28;20049;-73
2023/07/21 03:30:28;;;;;;;0.10;0.10;;;15.20;76.80;;;;;;4992966;28;20058;-73
2023/07/21 03:32:54;;;;;;;0.00;0.00;;;15.20;77.00;;;;;;4992752;28;20038;-73
2023/07/21 03:35:19;;;;;;;0.00;0.00;;;15.20;76.90;;;;;;5010122;28;20064;-73
2023/07/21 03:37:45;;;;;;;0.00;0.00;;;15.20;76.70;;;;;;4992626;28;20046;-73
2023/07/21 03:40:11;;;;;;;0.10;0.10;;;15.20;76.80;;;;;;5009248;28;20112;-73
2023/07/21 03:42:37;;;;;;;0.00;0.00;;;15.10;76.90;;;;;;5009880;28;20483;-73
2023/07/21 03:45:06;;;;;;;0.00;0.00;;;15.20;77.00;;;;;;4992779;28;20073;-73
2023/07/21 03:47:33;;;;;;;0.00;0.00;;;15.10;76.80;;;;;;5009157;28;20100;-73
2023/07/21 03:49:59;;;;;;;0.00;0.00;;;15.10;76.90;;;;;;4990622;28;20125;-73
2023/07/21 03:52:25;;;;;;;0.00;0.00;;;15.20;77.10;;;;;;4957024;28;20142;-73
2023/07/21 03:54:50;;;;;;;0.00;0.00;;;15.20;77.30;;;;;;4973019;28;20474;-73
2023/07/21 03:57:16;;;;;;;0.00;0.00;;;15.20;77.40;;;;;;4990341;28;20050;-73
2023/07/21 03:59:42;;;;;;;0.00;0.00;;;15.20;77.20;;;;;;4973562;28;20069;-73
2023/07/21 04:02:08;;;;;;;0.00;0.00;;;15.20;77.40;;;;;;5009945;28;20054;-73
2023/07/21 04:04:34;;;;;;;0.00;0.00;;;15.20;77.50;;;;;;4992729;28;20107;-73
2023/07/21 04:07:01;;;;;;;0.00;0.00;;;15.20;77.60;;;;;;5010092;28;20509;-73
2023/07/21 04:09:33;;;;;;;0.00;0.00;;;15.20;77.30;;;;;;5009972;28;20046;-73
2023/07/21 04:11:59;;;;;;;;;;;15.20;77.30;;;;;;5010170;28;20046;-73
2023/07/21 04:14:25;;;;;;;0.00;0.00;;;15.20;77.50;;;;;;4992392;28;19921;-73
2023/07/21 04:16:51;;;;;;;0.00;0.00;;;15.20;77.30;;;;;;5009902;28;20085;-73
2023/07/21 04:19:17;;;;;;;0.00;0.00;;;15.20;77.20;;;;;;5009684;28;20081;-73
2023/07/21 04:21:43;;;;;;;0.00;0.00;;;15.10;77.10;;;;;;4992371;28;20918;-73
2023/07/21 04:24:10;;;;;;;0.10;0.10;;;15.10;77.30;;;;;;4992017;28;20136;-73
2023/07/21 04:26:36;;;;;;;0.00;0.00;;;15.20;77.40;;;;;;4991950;28;20054;-73
2023/07/21 04:29:02;;;;;;;0.00;0.00;;;15.20;77.50;;;;;;5009601;28;20046;-73
2023/07/21 04:31:28;;;;;;;0.00;0.00;;;15.20;77.40;;;;;;4992054;28;20041;-73
2023/07/21 04:33:55;;;;;;;0.00;0.00;;;15.20;77.40;;;;;;5009436;28;20092;-73
2023/07/21 04:36:21;;;;;;;0.00;0.00;;;15.20;77.70;;;;;;5007610;28;20050;-73
2023/07/21 04:38:48;;;;;;;0.00;0.00;;;15.30;77.70;;;;;;4990041;28;20391;-73
2023/07/21 04:41:14;;;;;;;0.00;0.00;;;15.30;77.50;;;;;;4972651;28;20776;-73
2023/07/21 04:43:40;;;;;;;0.00;0.00;;;15.30;77.40;;;;;;4972730;28;20049;-73
2023/07/21 04:46:05;;;;;;;0.00;0.00;;;15.30;77.30;;;;;;5006754;28;20737;-73
2023/07/21 04:48:31;;;;;;;0.00;0.00;;;15.30;77.20;;;;;;4991945;28;20038;-73
2023/07/21 04:50:57;;;;;;;0.00;0.00;;;15.40;77.20;;;;;;5008971;28;20046;-73
2023/07/21 04:53:23;;;;;;;0.00;0.00;;;15.40;77.20;;;;;;5010681;28;20533;-73
2023/07/21 04:55:54;;;;;;;0.00;0.00;;;15.40;77.30;;;;;;5013196;28;20483;-73
2023/07/21 04:58:19;;;;;;;0.00;0.00;;;15.50;77.40;;;;;;4995516;28;20084;-73
2023/07/21 05:00:45;;;;;;;0.00;0.00;;;15.50;77.30;;;;;;4995673;28;20519;-73
2023/07/21 05:03:10;;;;;;;0.00;0.00;;;15.50;77.60;;;;;;5013118;28;20054;-73
2023/07/21 05:05:37;;;;;;;0.00;0.00;;;15.50;77.60;;;;;;4995057;28;20522;-73
2023/07/21 05:08:04;;;;;;;0.00;0.00;;;15.60;77.60;;;;;;5013092;28;20205;-73
2023/07/21 05:10:30;;;;;;;0.00;0.00;;;15.60;77.80;;;;;;4995621;28;20049;-73
2023/07/21 05:12:57;;;;;;;0.00;0.00;;;15.60;77.70;;;;;;5012580;28;20038;-73
2023/07/21 05:15:24;;;;;;;0.00;0.00;;;15.70;77.60;;;;;;5012384;28;20050;-73
2023/07/21 05:17:50;;;;;;;0.00;0.00;;;15.70;77.80;;;;;;5012866;28;20053;-73
2023/07/21 05:20:16;;;;;;;0.00;0.00;;;15.70;78.00;;;;;;4995085;28;20049;-73
2023/07/21 05:22:41;;;;;;;0.00;0.00;;;15.70;78.00;;;;;;5012932;28;20149;-73
2023/07/21 05:25:09;;;;;;;0.00;0.00;;;15.70;78.10;;;;;;5012437;28;20081;-73
2023/07/21 05:27:34;;;;;;;0.00;0.00;;;15.80;78.10;;;;;;4995214;28;20046;-73
2023/07/21 05:30:00;;;;;;;0.00;0.00;;;15.80;78.10;;;;;;5012201;28;20048;-73
2023/07/21 05:32:26;;;;;;;0.00;0.00;;;15.90;78.20;;;;;;5012682;28;20586;-74
2023/07/21 05:34:51;;;;;;;0.00;0.00;;;15.90;77.90;;;;;;5012332;28;20049;-73
2023/07/21 05:37:17;;;;;;;0.00;0.00;;;16.00;78.20;;;;;;4994562;28;20498;-73
2023/07/21 05:39:42;;;;;;;0.00;0.00;;;16.00;78.20;;;;;;5012455;28;20050;-73
2023/07/21 05:42:08;;;;;;;0.00;0.00;;;16.10;78.20;;;;;;5012773;28;20050;-73
2023/07/21 05:44:34;;;;;;;0.00;0.00;;;16.10;78.50;;;;;;4996026;28;20100;-73
2023/07/21 05:47:00;;;;;;;0.00;0.00;;;16.20;78.40;;;;;;5012312;28;20096;-73
2023/07/21 05:49:26;;;;;;;0.00;0.00;;;16.20;78.20;;;;;;5012379;28;20041;-73
2023/07/21 05:51:52;;;;;;;0.00;0.00;;;16.20;78.10;;;;;;4991471;28;20050;-73
2023/07/21 05:54:18;;;;;;;0.00;0.00;;;16.30;78.00;;;;;;4992777;28;20578;-73
2023/07/21 05:56:44;;;;;;;0.00;0.00;;;16.30;78.20;;;;;;4992757;28;20407;-73
2023/07/21 05:59:09;;;;;;;0.00;0.00;;;16.40;78.30;;;;;;5008351;28;20045;-73
2023/07/21 06:01:36;;;;;;;0.00;0.00;;;16.50;78.20;;;;;;4994248;28;20129;-73
2023/07/21 06:04:03;;;;;;;0.00;0.00;;;16.50;77.90;;;;;;4991263;28;20152;-73
2023/07/21 06:06:29;;;;;;;0.00;0.00;;;16.60;77.50;;;;;;4992937;28;20086;-73
2023/07/21 06:08:55;;;;;;;0.00;0.00;;;16.60;77.60;;;;;;5009076;28;20100;-73
2023/07/21 06:11:22;;;;;;;0.00;0.00;;;16.80;77.90;;;;;;4994108;28;20430;-73
2023/07/21 06:13:49;;;;;;;0.00;0.00;;;16.80;77.30;;;;;;4989466;28;20136;-73
2023/07/21 06:16:14;;;;;;;0.00;0.00;;;16.90;77.20;;;;;;5010755;28;20133;-73
2023/07/21 06:18:41;;;;;;;0.00;0.00;;;17.00;77.30;;;;;;4993505;28;20065;-73
2023/07/21 06:21:06;;;;;;;0.00;0.00;;;17.10;76.80;;;;;;5003030;28;20622;-73
2023/07/21 06:23:32;;;;;;;0.00;0.00;;;17.10;76.70;;;;;;5010193;28;20133;-73
2023/07/21 06:25:58;;;;;;;0.00;0.00;;;17.10;76.90;;;;;;5007237;28;20046;-73
2023/07/21 06:28:23;;;;;;;0.00;0.00;;;17.20;76.80;;;;;;5002315;28;20078;-73
2023/07/21 06:30:49;;;;;;;0.00;0.00;;;17.30;76.50;;;;;;4993801;28;20144;-73
2023/07/21 06:33:15;;;;;;;0.00;0.00;;;17.30;76.40;;;;;;5010682;28;20529;-72
2023/07/21 06:35:40;;;;;;;0.00;0.00;;;17.40;76.10;;;;;;5009638;28;20038;-72
2023/07/21 06:38:07;;;;;;;0.00;0.00;;;17.50;75.70;;;;;;5010080;28;20061;-75
2023/07/21 06:40:33;;;;;;;0.00;0.00;;;17.50;75.50;;;;;;4993016;28;20064;-74
2023/07/21 06:42:58;;;;;;;0.00;0.00;;;17.50;75.40;;;;;;4992191;28;20165;-70
2023/07/21 06:45:25;;;;;;;0.00;0.00;;;17.50;75.60;;;;;;5010227;28;20639;-69
2023/07/21 06:47:50;;;;;;;0.00;0.00;;;17.50;76.30;;;;;;5010334;28;20053;-70
2023/07/21 06:50:19;;;;;;;0.00;0.00;;;17.60;76.20;;;;;;5009594;28;20710;-71
2023/07/21 06:52:46;;;;;;;0.00;0.00;;;17.60;76.20;;;;;;5010001;28;20060;-71
2023/07/21 06:55:11;;;;;;;0.00;0.00;;;17.70;76.10;;;;;;5009789;28;20085;-71
2023/07/21 06:57:37;;;;;;;0.00;0.00;;;17.80;75.70;;;;;;5008543;28;20148;-71
2023/07/21 07:00:05;;;;;;;0.00;0.00;;;18.00;76.40;;;;;;5008624;28;20050;-70
2023/07/21 07:02:31;;;;;;;0.00;0.00;;;18.10;75.00;;;;;;4975726;28;20155;-71
2023/07/21 07:04:56;;;;;;;0.00;0.00;;;18.20;74.10;;;;;;5008955;28;20176;-70
2023/07/21 07:07:22;;;;;;;2.72;1.00;;;18.20;73.70;;;;;;4992614;28;20058;-70
2023/07/21 07:09:48;;;;;;;0.00;0.00;;;18.20;73.60;;;;;;5010904;28;20042;-70
2023/07/21 07:12:13;;;;;;;0.00;0.00;;;18.30;73.90;;;;;;5009309;28;20383;-70
2023/07/21 07:14:39;;;;;;;0.00;0.00;;;18.30;73.80;;;;;;5009226;28;20053;-70
2023/07/21 07:17:05;;;;;;;0.00;0.00;;;18.30;73.70;;;;;;5009615;28;20073;-71
2023/07/21 07:19:30;;;;;;;0.00;0.00;;;18.30;73.20;;;;;;5009639;28;20044;-70
2023/07/21 07:21:56;;;;;;;0.08;0.08;;;18.30;73.00;;;;;;4996509;28;20058;-70
2023/07/21 07:24:22;;;;;;;0.00;0.00;;;18.30;73.00;;;;;;5005234;28;20033;-70
2023/07/21 07:26:48;;;;;;;0.00;0.00;;;18.30;72.90;;;;;;4999082;28;20062;-69
2023/07/21 07:29:15;;;;;;;0.75;0.75;;;18.40;71.70;;;;;;5007504;28;20030;-71
2023/07/21 07:31:42;;;;;;;0.00;0.00;;;18.40;72.20;;;;;;4997644;28;20062;-70
2023/07/21 07:34:07;;;;;;;0.00;0.00;;;18.50;72.40;;;;;;5007611;28;20042;-69
2023/07/21 07:36:33;;;;;;;0.10;0.10;;;18.60;72.00;;;;;;5009282;28;20045;-68
2023/07/21 07:38:58;;;;;;;0.00;0.00;;;18.60;71.90;;;;;;5009013;28;20052;-69
2023/07/21 07:41:24;;;;;;;0.00;0.00;;;18.70;71.60;;;;;;5007727;28;20021;-69
2023/07/21 07:43:50;;;;;;;0.00;0.00;;;18.80;71.60;;;;;;5006434;28;20065;-69
2023/07/21 07:46:17;;;;;;;0.00;0.00;;;18.80;71.20;;;;;;5007895;28;20695;-70
2023/07/21 07:48:43;;;;;;;0.00;0.00;;;18.80;68.90;;;;;;5009390;28;20081;-69
2023/07/21 07:51:09;;;;;;;0.00;0.00;;;19.00;69.60;;;;;;4989706;28;20037;-70
2023/07/21 07:53:36;;;;;;;0.00;0.00;;;19.10;69.70;;;;;;4999873;28;20404;-70
2023/07/21 07:56:03;;;;;;;0.00;0.00;;;19.10;68.30;;;;;;4990969;28;20038;-70
2023/07/21 07:58:29;;;;;;;0.00;0.00;;;19.10;67.80;;;;;;5007889;28;20558;-70
2023/07/21 08:00:58;;;;;;;0.00;0.00;;;19.10;66.60;;;;;;5007453;28;20137;-70
2023/07/21 08:03:25;;;;;;;0.20;0.20;;;19.20;67.30;;;;;;4980340;28;20062;-70
2023/07/21 08:05:51;;;;;;;0.00;0.00;;;19.30;66.40;;;;;;5002364;28;20046;-70
2023/07/21 08:08:19;;;;;;;0.00;0.00;;;19.30;66.70;;;;;;4999468;28;20046;-70
2023/07/21 08:10:45;;;;;;;0.10;0.10;;;19.40;66.40;;;;;;5001555;28;20055;-70
2023/07/21 08:13:11;;;;;;;0.00;0.00;;;19.40;66.60;;;;;;5000907;28;20037;-70
2023/07/21 08:15:40;;;;;;;0.00;0.00;;;19.50;67.40;;;;;;5007776;28;20058;-69
2023/07/21 08:18:06;;;;;;;0.00;0.00;;;19.40;66.70;;;;;;4975164;28;20049;-69
2023/07/21 08:20:31;;;;;;;0.00;0.00;;;19.40;66.80;;;;;;5008978;28;20068;-71
2023/07/21 08:22:57;;;;;;;0.00;0.00;;;19.40;67.30;;;;;;4974189;28;20449;-68
2023/07/21 08:25:23;;;;;;;0.00;0.00;;;19.50;67.00;;;;;;5008888;28;20049;-69
2023/07/21 08:27:48;;;;;;;0.00;0.00;;;19.60;67.10;;;;;;5008196;28;20038;-69
2023/07/21 08:30:15;;;;;;;0.00;0.00;;;19.70;67.00;;;;;;5008762;28;20503;-69
2023/07/21 08:32:41;;;;;;;0.00;0.00;;;19.70;66.60;;;;;;4973922;28;20423;-69
2023/07/21 08:35:08;;;;;;;0.00;0.00;;;19.90;67.20;;;;;;4999424;28;20462;-70
2023/07/21 08:37:34;;;;;;;0.00;0.00;;;19.90;66.20;;;;;;5005083;28;20042;-69
2023/07/21 08:40:00;;;;;;;0.00;0.00;;;20.00;66.30;;;;;;5008533;28;20415;-69
2023/07/21 08:42:27;;;;;;;0.00;0.00;;;20.00;65.70;;;;;;5009062;28;20042;-69
2023/07/21 08:44:54;;;;;;;0.00;0.00;;;20.00;64.30;;;;;;5009040;28;20053;-69
2023/07/21 08:47:20;;;;;;;1.17;0.85;;;20.00;65.80;;;;;;5008583;28;20058;-69
2023/07/21 08:49:47;;;;;;;0.00;0.00;;;20.10;63.80;;;;;;5008861;28;20051;-69
2023/07/21 08:52:13;;;;;;;0.00;0.00;;;20.00;64.40;;;;;;5008998;28;20089;-69
2023/07/21 08:54:39;;;;;;;0.00;0.00;;;20.00;63.80;;;;;;5007459;28;20057;-69
2023/07/21 08:57:05;;;;;;;0.00;0.00;;;20.00;63.90;;;;;;4991087;28;20038;-69
2023/07/21 08:59:31;;;;;;;0.00;0.00;;;20.00;64.50;;;;;;4991546;28;20485;-69
2023/07/21 09:01:57;;;;;;;0.00;0.00;;;19.80;64.70;;;;;;5008625;28;20034;-69
2023/07/21 09:04:24;;;;;;;0.00;0.00;;;19.60;65.70;;;;;;5009534;28;20421;-69
2023/07/21 09:06:57;;;;;;;0.00;0.00;;;19.60;66.50;;;;;;5008481;28;20046;-69
2023/07/21 09:09:27;;;;;;;0.00;0.00;;;19.50;66.30;;;;;;4968573;28;20058;-69
2023/07/21 09:12:01;;;;;;;0.00;0.00;;;19.50;66.20;;;;;;4990194;28;20133;-69
2023/07/21 09:14:44;;;;;;;0.00;0.00;;;19.50;66.70;;;;;;4998037;28;20667;-69
2023/07/21 09:17:12;;;;;;;0.00;0.00;;;19.40;66.40;;;;;;5006337;28;20116;-69
2023/07/21 09:19:39;;;;;;;0.75;0.70;;;19.40;65.70;;;;;;5002410;28;20522;-69
2023/07/21 09:22:06;;;;;;;0.00;0.00;;;19.40;65.20;;;;;;4996015;28;20597;-69
2023/07/21 09:24:32;;;;;;;1.35;0.43;;;19.30;65.40;;;;;;5002536;28;20054;-69
2023/07/21 09:27:18;;;;;;;0.00;0.00;;;19.40;65.40;;;;;;5005891;28;20046;-69
2023/07/21 09:29:44;;;;;;;0.00;0.00;;;19.40;66.30;;;;;;4989824;28;20057;-67
2023/07/21 09:32:18;;;;;;;0.00;0.00;;;19.50;65.70;;;;;;4989702;28;20111;-70
2023/07/21 09:35:03;;;;;;;0.00;0.00;;;19.50;65.90;;;;;;4992021;28;20039;-69
2023/07/21 09:37:31;;;;;;;0.00;0.00;;;19.50;66.50;;;;;;5006191;28;20635;-70
2023/07/21 09:40:05;;;;;;;0.00;0.00;;;19.60;65.50;;;;;;4990648;28;20042;-69
2023/07/21 09:42:31;;;;;;;0.00;0.00;;;19.60;65.60;;;;;;5011986;28;20046;-69
2023/07/21 09:44:58;;;;;;;2.05;0.70;;;19.60;65.80;;;;;;5007494;28;20069;-69
2023/07/21 09:47:24;;;;;;;2.50;0.47;;;19.60;65.10;;;;;;4993653;28;20050;-69
2023/07/21 09:49:53;;;;;;;0.00;0.00;;;19.70;65.80;;;;;;5011056;28;20073;-68
2023/07/21 09:52:21;;;;;;;0.00;0.00;;;19.60;65.90;;;;;;5011722;28;20054;-69
2023/07/21 09:55:11;;;;;;;0.00;0.00;;;19.70;65.70;;;;;;5012198;28;20073;-69
2023/07/21 09:57:41;;;;;;;0.00;0.00;;;19.80;65.30;;;;;;5011286;28;20470;-69
2023/07/21 10:00:12;;;;;;;0.00;0.00;;;19.90;65.50;;;;;;5010688;28;20048;-69
2023/07/21 10:02:40;;;;;;;0.00;0.00;;;19.90;65.10;;;;;;5000207;28;20122;-69
2023/07/21 10:05:09;;;;;;;0.00;0.00;;;20.00;65.50;;;;;;5007774;28;20050;-68
2023/07/21 10:07:36;;;;;;;0.00;0.00;;;20.10;65.20;;;;;;4994164;28;20052;-69
2023/07/21 10:10:05;;;;;;;0.00;0.00;;;20.20;64.60;;;;;;4992130;28;20146;-69
2023/07/21 10:12:41;;;;;;;0.00;0.00;;;20.30;63.70;;;;;;5009347;28;20406;-69
2023/07/21 10:15:21;;;;;;;0.00;0.00;;;20.40;61.90;;;;;;4994084;28;20125;-68
2023/07/21 10:17:57;;;;;;;0.00;0.00;;;20.40;62.00;;;;;;5002429;28;20137;-69
2023/07/21 10:20:52;;;;;;;0.00;0.00;;;20.40;62.10;;;;;;5008862;28;20052;-68
2023/07/21 10:23:26;;;;;;;0.00;0.00;;;20.50;60.10;;;;;;4996963;28;20038;-69
2023/07/21 10:25:51;;;;;;;0.00;0.00;;;20.60;61.40;;;;;;4984443;28;20663;-68
2023/07/21 10:28:42;;;;;;;0.28;0.17;;;20.60;61.40;;;;;;4981439;28;20046;-68
2023/07/21 10:34:10;;;;;;;0.00;0.00;;;20.80;61.70;;;;;;5000244;28;20049;-69
2023/07/21 10:36:41;;;;;;;0.00;0.00;;;20.70;60.90;;;;;;4981100;28;20393;-68
2023/07/21 10:39:10;;;;;;;0.00;0.00;;;20.60;59.60;;;;;;4999986;28;20053;-69
2023/07/21 10:41:40;;;;;;;0.00;0.00;;;20.60;60.30;;;;;;4999694;28;21341;-69
2023/07/21 10:44:09;;;;;;;0.00;0.00;;;20.50;60.60;;;;;;5000675;28;20526;-68
2023/07/21 10:46:39;;;;;;;0.00;0.00;;;20.40;61.30;;;;;;4999808;28;20108;-68
2023/07/21 10:49:05;;;;;;;0.10;0.10;;;20.30;62.20;;;;;;4997013;28;20046;-68
2023/07/21 10:51:31;;;;;;;0.00;0.00;;;20.30;61.60;;;;;;4981660;28;20050;-68
2023/07/21 10:53:56;;;;;;;0.00;0.00;;;20.10;60.20;;;;;;4998571;28;20557;-69
2023/07/21 10:56:22;;;;;;;0.00;0.00;;;20.10;61.90;;;;;;4998238;28;20184;-69
2023/07/21 10:58:52;;;;;;;0.00;0.00;;;20.10;62.50;;;;;;4997739;28;20050;-69
2023/07/21 11:01:19;;;;;;;0.00;0.00;;;20.10;62.40;;;;;;4999105;28;20034;-68
2023/07/21 11:03:48;;;;;;;0.00;0.00;;;20.10;62.90;;;;;;4999694;28;20530;-68
2023/07/21 11:06:14;;;;;;;0.00;0.00;;;20.10;63.00;;;;;;4998700;28;20038;-68
2023/07/21 11:08:40;;;;;;;0.00;0.00;;;20.00;63.00;;;;;;4997818;28;20037;-68
2023/07/21 11:11:07;;;;;;;0.03;0.03;;;20.10;62.80;;;;;;4997835;28;20037;-68
2023/07/21 11:13:33;;;;;;;0.00;0.00;;;20.20;63.90;;;;;;4996826;28;20128;-68
2023/07/21 11:16:00;;;;;;;0.65;0.60;;;20.40;63.00;;;;;;4998441;28;20112;-68
2023/07/21 11:18:28;;;;;;;0.00;0.00;;;20.50;61.40;;;;;;4998418;28;20494;-68
2023/07/21 11:20:55;;;;;;;0.00;0.00;;;20.60;61.60;;;;;;4999001;28;20065;-67
2023/07/21 11:23:21;;;;;;;0.00;0.00;;;20.70;61.60;;;;;;4979796;28;20054;-68
2023/07/21 11:26:09;;;;;;;0.00;0.00;;;20.70;62.20;;;;;;4994737;28;20517;-67
2023/07/21 11:28:37;;;;;;;0.00;0.00;;;20.70;61.40;;;;;;4999740;28;20081;-66
2023/07/21 11:31:09;;;;;;;0.00;0.00;;;20.70;60.90;;;;;;4987700;28;20061;-67
2023/07/21 11:33:41;;;;;;;0.20;0.20;;;20.80;58.90;;;;;;4990632;28;20453;-66
2023/07/21 11:36:14;;;;;;;0.00;0.00;;;20.80;58.30;;;;;;5004720;28;20046;-66
2023/07/21 11:38:40;;;;;;;0.00;0.00;;;20.80;59.30;;;;;;5006002;28;20109;-66
2023/07/21 11:41:09;;;;;;;0.00;0.00;;;20.60;58.20;;;;;;5002154;28;20074;-66
2023/07/21 11:43:48;;;;;;;0.00;0.00;;;20.40;59.10;;;;;;5006485;28;20046;-66
2023/07/21 11:46:25;;;;;;;0.00;0.00;;;20.10;66.30;;;;;;4987658;28;20406;-65
2023/07/21 11:48:51;;;;;;;0.00;0.00;;;19.40;65.90;;;;;;5008469;28;20042;-65
2023/07/21 11:51:16;;;;;;;0.55;0.55;;;19.00;67.20;;;;;;5009191;28;20132;-67
2023/07/21 11:53:45;;;;;;;0.00;0.00;;;18.60;70.00;;;;;;5007161;28;20080;-65
2023/07/21 11:56:11;;;;;;;0.10;0.10;;;17.70;73.60;;;;;;5008736;28;20046;-65
2023/07/21 11:58:37;;;;;;;0.55;0.52;;;17.10;76.00;;;;;;5009313;28;20482;-65
2023/07/21 12:01:06;;;;;;;0.00;0.00;;;16.80;77.10;;;;;;5009137;28;20093;-66
2023/07/21 12:03:35;;;;;;;0.00;0.00;;;16.60;77.30;;;;;;4991878;28;20049;-66
2023/07/21 12:06:01;;;;;;;0.00;0.00;;;16.60;78.00;;;;;;5007959;28;20403;-65
2023/07/21 12:08:26;;;;;;;0.00;0.00;;;16.50;76.80;;;;;;5008970;28;20048;-66
2023/07/21 12:10:52;;;;;;;0.00;0.00;;;16.40;76.80;;;;;;5008943;28;20044;-66
2023/07/21 12:13:17;;;;;;;0.00;0.00;;;16.20;76.40;;;;;;5004275;28;20447;-65
2023/07/21 12:15:43;;;;;;;0.00;0.00;;;16.30;76.40;;;;;;4989905;28;20038;-65
2023/07/21 12:18:08;;;;;;;0.00;0.00;;;16.30;76.50;;;;;;4990143;28;20047;-65
2023/07/21 12:20:34;;;;;;;0.00;0.00;;;16.40;76.60;;;;;;4989492;28;20073;-65
2023/07/21 12:23:00;;;;;;;0.00;0.00;;;16.50;76.40;;;;;;4990353;28;20491;-65
2023/07/21 12:25:25;;;;;;;0.00;0.00;;;16.60;77.30;;;;;;5000225;28;20111;-65
2023/07/21 12:27:51;;;;;;;0.00;0.00;;;16.60;77.00;;;;;;5008739;28;20046;-65
2023/07/21 12:30:16;;;;;;;0.10;0.10;;;16.60;76.10;;;;;;5004881;28;20128;-65
2023/07/21 12:32:42;;;;;;;0.00;0.00;;;16.60;76.10;;;;;;5006271;28;20136;-65
2023/07/21 12:35:07;;;;;;;0.00;0.00;;;16.60;76.50;;;;;;5003517;28;20077;-65
2023/07/21 12:37:38;;;;;;;0.00;0.00;;;16.70;76.70;;;;;;4989721;28;20065;-65
2023/07/21 12:40:11;;;;;;;0.00;0.00;;;16.70;76.30;;;;;;4989131;28;20037;-65
2023/07/21 12:42:38;;;;;;;0.00;0.00;;;16.70;76.20;;;;;;4996779;28;20045;-65
2023/07/21 12:45:05;;;;;;;0.00;0.00;;;16.80;76.70;;;;;;5008374;28;20120;-65
2023/07/21 12:47:30;;;;;;;0.17;0.17;;;16.80;76.90;;;;;;5007762;28;20691;-65
2023/07/21 12:49:56;;;;;;;0.00;0.00;;;16.80;78.50;;;;;;5006778;28;20045;-66
2023/07/21 12:52:22;;;;;;;0.00;0.00;;;16.90;78.60;;;;;;4989213;28;20133;-65